Time;durP1;ratioP1;P1;durP2;ratioP2;P2;SDS_P1;SDS_P2;PMS_P1;PMS_P2;Temp;Humidity;BMP_temperature;BMP_pressure;BME280_temperature;BME280_humidity;BME280_pressure;Samples;Min_cycle;Max_cycle;Signal;HPM_P1;HPM_P2
2022/03/28 00:00:06;;;;;;;46.30;33.23;;;8.30;79.80;;;;;;5068308;28;20225;-69
2022/03/28 00:02:40;;;;;;;51.50;35.63;;;8.20;80.40;;;;;;5066053;28;20237;-69
2022/03/28 00:05:08;;;;;;;49.17;36.70;;;8.10;81.60;;;;;;5065066;28;20269;-69
2022/03/28 00:07:36;;;;;;;54.93;38.60;;;8.10;81.90;;;;;;5074848;28;20547;-69
2022/03/28 00:10:04;;;;;;;50.20;36.93;;;8.10;82.30;;;;;;5060104;28;20233;-69
2022/03/28 00:12:31;;;;;;;41.80;31.57;;;8.10;82.00;;;;;;5066785;28;20312;-69
2022/03/28 00:14:58;;;;;;;39.13;28.90;;;8.00;81.60;;;;;;5075528;28;20194;-69
2022/03/28 00:17:25;;;;;;;44.33;33.03;;;8.00;81.40;;;;;;5070228;28;20206;-69
2022/03/28 00:19:53;;;;;;;45.50;32.27;;;7.90;81.10;;;;;;5068978;28;20231;-69
2022/03/28 00:22:20;;;;;;;45.50;33.73;;;7.90;80.40;;;;;;5066879;28;20634;-69
2022/03/28 00:24:47;;;;;;;35.80;28.13;;;7.90;80.80;;;;;;5069706;28;20705;-70
2022/03/28 00:27:14;;;;;;;47.80;33.37;;;7.80;81.30;;;;;;5073372;28;20206;-70
2022/03/28 00:29:41;;;;;;;44.67;34.03;;;7.80;81.80;;;;;;5072226;28;20559;-70
2022/03/28 00:32:08;;;;;;;54.67;36.60;;;7.70;82.20;;;;;;5072649;28;20236;-70
2022/03/28 00:34:35;;;;;;;71.50;43.27;;;7.70;82.90;;;;;;5044407;28;20234;-69
2022/03/28 00:37:04;;;;;;;66.87;44.57;;;7.70;83.80;;;;;;5058561;28;20557;-70
2022/03/28 00:39:31;;;;;;;65.73;45.20;;;7.70;84.80;;;;;;5055112;28;20607;-70
2022/03/28 00:41:58;;;;;;;65.77;44.60;;;7.70;85.40;;;;;;5065189;28;20215;-69
2022/03/28 00:44:25;;;;;;;76.13;46.37;;;7.70;85.70;;;;;;5068360;28;20201;-70
2022/03/28 00:46:52;;;;;;;73.33;43.50;;;7.70;86.30;;;;;;5057892;28;20218;-70
2022/03/28 00:49:19;;;;;;;79.07;45.23;;;7.70;86.40;;;;;;5064868;28;20201;-69
2022/03/28 00:51:46;;;;;;;95.87;51.43;;;7.70;85.80;;;;;;5075049;28;20241;-69
2022/03/28 00:54:13;;;;;;;84.27;51.17;;;7.60;85.10;;;;;;5057551;28;20203;-69
2022/03/28 00:56:42;;;;;;;187.73;40.37;;;7.60;84.90;;;;;;5061302;28;20634;-69
2022/03/28 00:59:11;;;;;;;71.97;45.37;;;7.60;85.00;;;;;;5063418;28;20205;-69
2022/03/28 01:01:38;;;;;;;87.17;48.93;;;7.60;85.50;;;;;;5071470;28;20222;-69
2022/03/28 01:04:07;;;;;;;74.73;45.47;;;7.50;86.10;;;;;;5075134;28;20663;-69
2022/03/28 01:06:37;;;;;;;89.80;40.83;;;7.50;86.30;;;;;;5063864;28;20205;-69
2022/03/28 01:09:06;;;;;;;57.83;39.00;;;7.40;86.50;;;;;;5056249;28;20252;-69
2022/03/28 01:11:34;;;;;;;47.80;38.77;;;7.40;86.50;;;;;;5059376;28;20214;-69
2022/03/28 01:14:01;;;;;;;104.90;40.83;;;7.40;86.50;;;;;;5066557;28;20205;-69
2022/03/28 01:16:29;;;;;;;46.40;35.80;;;7.40;86.30;;;;;;5067578;28;20202;-69
2022/03/28 01:18:56;;;;;;;62.03;36.73;;;7.30;85.90;;;;;;5060588;28;20601;-69
2022/03/28 01:21:23;;;;;;;48.17;35.87;;;7.30;86.00;;;;;;5063246;28;20195;-69
2022/03/28 01:23:51;;;;;;;51.13;33.43;;;7.20;85.90;;;;;;5059312;28;20356;-69
2022/03/28 01:26:18;;;;;;;83.07;36.17;;;7.10;85.50;;;;;;5057125;28;20252;-69
2022/03/28 01:28:45;;;;;;;242.57;32.10;;;7.10;84.90;;;;;;5072878;28;20274;-69
2022/03/28 01:31:12;;;;;;;102.17;31.17;;;7.00;84.30;;;;;;5063449;28;20204;-69
2022/03/28 01:33:40;;;;;;;40.47;33.40;;;6.90;84.60;;;;;;5062931;28;20567;-69
2022/03/28 01:36:07;;;;;;;41.37;32.00;;;6.80;85.40;;;;;;5060923;28;20188;-69
2022/03/28 01:38:34;;;;;;;38.87;31.07;;;6.70;85.40;;;;;;5064200;28;20216;-69
2022/03/28 01:41:01;;;;;;;41.33;34.50;;;6.60;85.50;;;;;;5062068;28;20206;-69
2022/03/28 01:43:28;;;;;;;36.70;27.00;;;6.60;84.90;;;;;;5071287;28;20212;-69
2022/03/28 01:45:55;;;;;;;50.80;32.97;;;6.50;84.60;;;;;;5066044;28;20217;-69
2022/03/28 01:48:22;;;;;;;44.17;33.20;;;6.50;84.70;;;;;;5069200;28;20205;-69
2022/03/28 01:50:49;;;;;;;77.93;33.63;;;6.40;84.60;;;;;;5072920;28;20219;-69
2022/03/28 01:53:16;;;;;;;39.93;32.10;;;6.30;85.10;;;;;;5067111;28;20229;-69
2022/03/28 01:55:43;;;;;;;56.70;42.00;;;6.30;85.70;;;;;;5060353;28;20546;-69
2022/03/28 01:58:10;;;;;;;78.33;33.43;;;6.30;85.30;;;;;;5056580;28;20549;-70
2022/03/28 02:00:37;;;;;;;40.00;33.70;;;6.20;84.00;;;;;;5060768;28;20209;-70
2022/03/28 02:03:04;;;;;;;41.67;33.37;;;6.10;84.30;;;;;;5063435;28;20403;-70
2022/03/28 02:05:31;;;;;;;48.23;37.47;;;6.00;84.00;;;;;;5065994;28;20548;-70
2022/03/28 02:07:59;;;;;;;44.50;35.13;;;6.00;83.80;;;;;;5070118;28;20205;-70
2022/03/28 02:10:27;;;;;;;37.30;31.23;;;6.00;83.60;;;;;;5066497;28;20338;-69
2022/03/28 02:12:54;;;;;;;36.17;29.63;;;6.00;83.60;;;;;;5070480;28;20283;-69
2022/03/28 02:15:21;;;;;;;32.27;28.67;;;5.90;83.20;;;;;;5058569;28;20255;-69
2022/03/28 02:17:48;;;;;;;36.40;29.13;;;5.90;82.90;;;;;;5061372;28;20638;-69
2022/03/28 02:20:16;;;;;;;30.23;26.27;;;5.90;82.70;;;;;;5069009;28;20675;-69
2022/03/28 02:22:45;;;;;;;31.03;24.23;;;6.00;83.20;;;;;;5063456;28;20222;-69
2022/03/28 02:25:13;;;;;;;54.73;21.33;;;5.90;83.30;;;;;;5062188;28;20630;-69
2022/03/28 02:27:42;;;;;;;30.43;26.50;;;5.90;83.10;;;;;;5068501;28;20197;-69
2022/03/28 02:30:11;;;;;;;51.27;27.00;;;5.90;83.60;;;;;;5059214;28;20543;-69
2022/03/28 02:32:38;;;;;;;29.20;26.03;;;5.80;84.00;;;;;;5063578;28;20217;-69
2022/03/28 02:35:07;;;;;;;37.73;31.37;;;5.80;84.60;;;;;;5061481;28;20274;-69
2022/03/28 02:37:34;;;;;;;42.90;33.97;;;5.80;84.80;;;;;;5056277;28;20202;-69
2022/03/28 02:40:02;;;;;;;38.03;31.07;;;5.70;85.10;;;;;;5068501;28;20548;-69
2022/03/28 02:42:29;;;;;;;41.30;33.10;;;5.70;85.50;;;;;;5056911;28;20205;-69
2022/03/28 02:44:57;;;;;;;81.97;29.73;;;5.70;85.50;;;;;;5060419;28;20284;-69
2022/03/28 02:47:24;;;;;;;35.13;29.90;;;5.70;85.70;;;;;;5062227;28;20284;-69
2022/03/28 02:49:51;;;;;;;37.27;31.17;;;5.70;85.90;;;;;;5066929;28;20217;-69
2022/03/28 02:52:18;;;;;;;33.97;29.60;;;5.60;86.00;;;;;;5073877;28;20217;-69
2022/03/28 02:54:45;;;;;;;36.57;30.57;;;5.60;85.40;;;;;;5076261;28;20212;-69
2022/03/28 02:57:12;;;;;;;44.07;35.37;;;5.60;84.70;;;;;;5070378;28;20200;-69
2022/03/28 02:59:39;;;;;;;38.33;32.20;;;5.60;84.80;;;;;;5065626;28;20216;-69
2022/03/28 03:02:06;;;;;;;36.80;30.83;;;5.60;85.00;;;;;;5059375;28;20207;-69
2022/03/28 03:04:34;;;;;;;35.97;29.50;;;5.50;84.90;;;;;;5065159;28;20198;-69
2022/03/28 03:07:02;;;;;;;38.43;31.30;;;5.50;84.70;;;;;;5067623;28;20225;-69
2022/03/28 03:09:28;;;;;;;38.10;31.23;;;5.50;84.80;;;;;;5059909;28;20252;-69
2022/03/28 03:11:56;;;;;;;33.07;28.10;;;5.50;84.90;;;;;;5069444;28;20202;-69
2022/03/28 03:14:23;;;;;;;31.93;27.50;;;5.50;84.90;;;;;;5057796;28;20205;-69
2022/03/28 03:16:51;;;;;;;36.73;30.97;;;5.50;85.00;;;;;;5069688;28;20202;-69
2022/03/28 03:19:18;;;;;;;35.77;30.90;;;5.60;85.00;;;;;;5067502;28;20546;-69
2022/03/28 03:21:46;;;;;;;38.97;32.43;;;5.60;84.70;;;;;;5067173;28;20204;-69
2022/03/28 03:24:14;;;;;;;32.13;28.47;;;5.60;84.10;;;;;;5059481;28;20202;-69
2022/03/28 03:26:41;;;;;;;26.20;22.97;;;5.70;83.60;;;;;;5074327;28;20705;-69
2022/03/28 03:29:09;;;;;;;26.47;23.20;;;5.70;83.50;;;;;;5066462;28;20205;-69
2022/03/28 03:31:36;;;;;;;33.13;26.80;;;5.70;83.60;;;;;;5066697;28;20205;-69
2022/03/28 03:34:03;;;;;;;34.80;28.07;;;5.70;83.60;;;;;;5068577;28;20278;-69
2022/03/28 03:36:30;;;;;;;31.00;25.33;;;5.80;83.80;;;;;;5074965;28;20634;-69
2022/03/28 03:38:58;;;;;;;34.50;26.60;;;5.90;83.80;;;;;;5058074;28;20213;-69
2022/03/28 03:41:25;;;;;;;31.57;25.60;;;5.90;83.50;;;;;;5059199;28;20215;-69
2022/03/28 03:43:52;;;;;;;31.50;25.87;;;6.00;83.40;;;;;;5072100;28;20290;-69
2022/03/28 03:46:19;;;;;;;42.10;29.57;;;6.00;84.00;;;;;;5069586;28;20202;-69
2022/03/28 03:48:47;;;;;;;36.80;28.97;;;6.00;83.40;;;;;;5071812;28;20217;-69
2022/03/28 03:51:14;;;;;;;38.30;30.13;;;6.10;83.50;;;;;;5069185;28;20219;-69
2022/03/28 03:53:41;;;;;;;39.43;29.23;;;6.10;83.40;;;;;;5067782;28;20233;-69
2022/03/28 03:56:09;;;;;;;41.50;29.93;;;6.10;83.40;;;;;;5070781;28;20530;-69
2022/03/28 03:58:36;;;;;;;43.60;31.87;;;6.20;83.60;;;;;;5074976;28;20213;-69
2022/03/28 04:01:04;;;;;;;50.90;33.67;;;6.20;83.50;;;;;;5065144;28;20213;-69
2022/03/28 04:03:33;;;;;;;46.77;34.17;;;6.20;83.60;;;;;;5070683;28;20533;-69
2022/03/28 04:06:00;;;;;;;42.83;33.03;;;6.30;84.20;;;;;;5072969;28;20198;-69
2022/03/28 04:08:27;;;;;;;40.17;31.00;;;6.30;84.30;;;;;;5065940;28;20210;-69
2022/03/28 04:10:55;;;;;;;51.33;34.27;;;6.30;84.00;;;;;;5071122;28;20532;-69
2022/03/28 04:13:22;;;;;;;48.47;34.37;;;6.30;83.50;;;;;;5066425;28;20221;-69
2022/03/28 04:15:49;;;;;;;55.80;36.07;;;6.30;83.30;;;;;;5061185;28;20219;-69
2022/03/28 04:18:16;;;;;;;58.47;37.50;;;6.40;83.60;;;;;;5074195;28;20637;-69
2022/03/28 04:20:43;;;;;;;60.40;37.00;;;6.40;84.10;;;;;;5063858;28;20336;-69
2022/03/28 04:23:10;;;;;;;55.30;37.57;;;6.40;84.40;;;;;;5063566;28;20220;-69
2022/03/28 04:25:37;;;;;;;59.30;38.03;;;6.40;84.60;;;;;;5066167;28;20202;-69
2022/03/28 04:28:08;;;;;;;51.80;34.77;;;6.40;84.60;;;;;;5065890;28;20665;-69
2022/03/28 04:30:35;;;;;;;45.10;31.47;;;6.50;84.60;;;;;;5065907;28;20205;-69
2022/03/28 04:33:03;;;;;;;45.53;32.53;;;6.40;84.20;;;;;;5062026;28;20215;-69
2022/03/28 04:35:30;;;;;;;51.90;34.50;;;6.40;83.50;;;;;;5062467;28;20657;-69
2022/03/28 04:37:59;;;;;;;46.87;31.87;;;6.40;82.90;;;;;;5061995;28;20232;-69
2022/03/28 04:40:27;;;;;;;51.07;32.87;;;6.40;82.70;;;;;;5050289;28;20305;-69
2022/03/28 04:42:54;;;;;;;43.50;32.43;;;6.40;82.60;;;;;;5060483;28;20206;-69
2022/03/28 04:45:21;;;;;;;46.07;33.67;;;6.30;82.40;;;;;;5057787;28;20197;-69
2022/03/28 04:47:48;;;;;;;53.47;31.40;;;6.30;82.20;;;;;;5061500;28;20590;-69
2022/03/28 04:50:15;;;;;;;52.67;32.90;;;6.30;82.00;;;;;;5068223;28;20206;-69
2022/03/28 04:52:42;;;;;;;47.03;33.13;;;6.30;81.90;;;;;;5063242;28;20225;-69
2022/03/28 04:55:10;;;;;;;48.37;31.93;;;6.30;81.80;;;;;;5071107;28;20228;-69
2022/03/28 04:57:37;;;;;;;47.47;32.80;;;6.20;81.70;;;;;;5062140;28;20197;-69
2022/03/28 05:00:07;;;;;;;43.33;30.90;;;6.20;81.60;;;;;;5055386;28;20211;-69
2022/03/28 05:02:34;;;;;;;45.80;30.40;;;6.20;81.50;;;;;;5072568;28;20209;-69
2022/03/28 05:05:05;;;;;;;40.50;28.87;;;6.20;81.40;;;;;;5065429;28;20206;-69
2022/03/28 05:07:33;;;;;;;45.43;31.57;;;6.20;81.40;;;;;;5058848;28;20224;-69
2022/03/28 05:10:01;;;;;;;50.33;32.47;;;6.20;81.50;;;;;;5056491;28;20242;-69
2022/03/28 05:12:29;;;;;;;50.60;33.70;;;6.20;81.60;;;;;;5067269;28;20212;-69
2022/03/28 05:14:56;;;;;;;51.17;32.27;;;6.20;81.80;;;;;;5064843;28;20220;-69
2022/03/28 05:17:28;;;;;;;46.57;32.03;;;6.20;82.30;;;;;;5065066;28;20205;-69
2022/03/28 05:19:56;;;;;;;45.37;29.93;;;6.20;82.40;;;;;;5062006;28;20655;-69
2022/03/28 05:22:23;;;;;;;44.73;30.30;;;6.20;82.30;;;;;;5065173;28;20202;-69
2022/03/28 05:24:52;;;;;;;43.57;30.53;;;6.20;81.70;;;;;;5057066;28;20609;-69
2022/03/28 05:27:19;;;;;;;44.60;29.90;;;6.20;81.40;;;;;;5069417;28;20522;-69
2022/03/28 05:29:47;;;;;;;48.47;30.50;;;6.30;81.60;;;;;;5067135;28;20217;-69
2022/03/28 05:32:14;;;;;;;45.97;30.10;;;6.40;81.70;;;;;;5066238;28;20197;-69
2022/03/28 05:34:41;;;;;;;49.60;31.00;;;6.40;81.60;;;;;;5071736;28;20662;-69
2022/03/28 05:37:16;;;;;;;45.60;30.37;;;6.50;81.40;;;;;;5063590;28;20547;-69
2022/03/28 05:39:44;;;;;;;53.10;32.20;;;6.60;81.20;;;;;;5052969;28;20651;-69
2022/03/28 05:42:12;;;;;;;46.27;31.30;;;6.60;81.20;;;;;;5071872;28;20270;-69
2022/03/28 05:44:43;;;;;;;47.67;31.27;;;6.70;81.20;;;;;;5063888;28;20637;-69
2022/03/28 05:47:11;;;;;;;46.87;31.63;;;6.80;81.30;;;;;;5064414;28;20216;-69
2022/03/28 05:49:38;;;;;;;46.97;29.77;;;6.90;81.10;;;;;;5057086;28;20213;-69
2022/03/28 05:52:05;;;;;;;43.50;30.10;;;6.90;80.80;;;;;;5059986;28;20214;-69
2022/03/28 05:54:32;;;;;;;49.50;32.13;;;7.00;80.70;;;;;;5066746;28;20259;-69
2022/03/28 05:57:00;;;;;;;46.83;30.90;;;7.10;80.50;;;;;;5065493;28;20209;-69
2022/03/28 05:59:27;;;;;;;48.10;30.10;;;7.20;80.30;;;;;;5068893;28;20201;-69
2022/03/28 06:01:54;;;;;;;50.70;30.00;;;7.30;80.00;;;;;;5059757;28;20230;-69
2022/03/28 06:04:21;;;;;;;44.43;28.83;;;7.40;80.00;;;;;;5056554;28;20198;-69
2022/03/28 06:06:49;;;;;;;51.00;28.27;;;7.50;80.10;;;;;;5071326;28;20213;-69
2022/03/28 06:09:16;;;;;;;40.00;29.53;;;7.60;80.00;;;;;;5064446;28;20241;-69
2022/03/28 06:11:43;;;;;;;48.13;30.73;;;7.70;79.60;;;;;;5070673;28;20208;-69
2022/03/28 06:14:10;;;;;;;44.03;27.87;;;7.80;79.30;;;;;;5069418;28;20230;-69
2022/03/28 06:16:37;;;;;;;40.63;27.40;;;7.90;78.90;;;;;;5062694;28;20628;-69
2022/03/28 06:19:04;;;;;;;38.27;26.90;;;8.10;77.80;;;;;;5058769;28;20567;-69
2022/03/28 06:21:31;;;;;;;44.40;26.53;;;8.40;77.00;;;;;;5056940;28;20214;-69
2022/03/28 06:24:04;;;;;;;40.53;26.37;;;8.60;76.70;;;;;;5046287;28;20214;-69
2022/03/28 06:26:31;;;;;;;53.03;26.73;;;8.80;76.00;;;;;;5062635;28;20203;-69
2022/03/28 06:28:58;;;;;;;42.57;27.63;;;9.00;75.20;;;;;;5060411;28;20217;-69
2022/03/28 06:31:25;;;;;;;38.80;24.63;;;9.00;74.70;;;;;;5068676;28;20211;-69
2022/03/28 06:34:01;;;;;;;40.73;27.40;;;9.20;75.00;;;;;;5064519;28;20395;-69
2022/03/28 06:36:30;;;;;;;50.93;27.10;;;9.30;75.10;;;;;;5060499;28;20592;-69
2022/03/28 06:38:57;;;;;;;51.73;25.83;;;9.40;75.00;;;;;;5059246;28;20206;-69
2022/03/28 06:41:24;;;;;;;38.07;24.63;;;9.50;74.60;;;;;;5064945;28;20540;-69
2022/03/28 06:43:51;;;;;;;41.07;24.63;;;9.70;74.00;;;;;;5056543;28;20204;-69
2022/03/28 06:46:20;;;;;;;38.50;24.73;;;9.90;73.20;;;;;;5063439;28;20202;-69
2022/03/28 06:48:49;;;;;;;35.67;23.87;;;10.10;72.50;;;;;;5062596;28;20246;-69
2022/03/28 06:51:16;;;;;;;38.83;26.23;;;10.20;71.90;;;;;;5068407;28;20192;-69
2022/03/28 06:53:48;;;;;;;38.33;23.60;;;10.40;71.30;;;;;;5062423;28;20250;-69
2022/03/28 06:56:19;;;;;;;43.17;24.03;;;10.50;70.60;;;;;;5064679;28;20620;-69
2022/03/28 06:58:46;;;;;;;38.00;25.10;;;10.70;69.50;;;;;;5058960;28;20202;-69
2022/03/28 07:01:13;;;;;;;40.63;25.60;;;10.80;68.90;;;;;;5054840;28;20213;-69
2022/03/28 07:03:41;;;;;;;41.97;26.53;;;11.00;68.60;;;;;;5060961;28;20202;-69
2022/03/28 07:06:08;;;;;;;47.33;27.67;;;11.10;68.40;;;;;;5065427;28;20250;-69
2022/03/28 07:08:36;;;;;;;37.57;24.93;;;11.30;68.00;;;;;;5064285;28;20218;-69
2022/03/28 07:11:03;;;;;;;41.53;24.60;;;11.40;67.60;;;;;;5059729;28;20634;-69
2022/03/28 07:13:31;;;;;;;37.93;25.27;;;11.50;67.00;;;;;;5066326;28;20278;-69
2022/03/28 07:15:58;;;;;;;35.70;24.80;;;11.60;66.10;;;;;;5071046;28;20203;-69
2022/03/28 07:18:25;;;;;;;38.80;25.63;;;11.80;65.40;;;;;;5069415;28;20290;-69
2022/03/28 07:20:52;;;;;;;43.10;26.33;;;11.90;65.00;;;;;;5063491;28;20614;-69
2022/03/28 07:23:20;;;;;;;39.77;24.70;;;12.00;65.10;;;;;;5063211;28;20221;-69
2022/03/28 07:25:47;;;;;;;37.37;25.17;;;12.20;64.60;;;;;;5056709;28;20655;-69
2022/03/28 07:28:17;;;;;;;42.87;25.73;;;12.40;63.90;;;;;;5063485;28;20231;-69
2022/03/28 07:30:44;;;;;;;39.83;26.43;;;12.50;63.00;;;;;;5058651;28;20294;-69
2022/03/28 07:33:11;;;;;;;36.53;25.63;;;12.60;62.40;;;;;;5074006;28;20636;-69
2022/03/28 07:35:38;;;;;;;39.77;28.03;;;12.80;62.40;;;;;;5064359;28;20195;-69
2022/03/28 07:38:08;;;;;;;41.97;26.10;;;12.90;62.40;;;;;;5073776;28;20216;-69
2022/03/28 07:40:36;;;;;;;37.50;25.50;;;13.10;62.10;;;;;;5073374;28;20214;-69
2022/03/28 07:43:05;;;;;;;44.93;26.53;;;13.20;61.60;;;;;;5071141;28;20210;-69
2022/03/28 07:45:32;;;;;;;41.27;27.30;;;13.40;60.90;;;;;;5078918;28;20202;-70
2022/03/28 07:47:59;;;;;;;43.33;26.87;;;13.60;60.30;;;;;;5055632;28;20206;-70
2022/03/28 07:50:26;;;;;;;39.40;26.53;;;13.70;58.80;;;;;;5074452;28;20221;-69
2022/03/28 07:52:53;;;;;;;37.00;27.10;;;13.90;58.00;;;;;;5067868;28;20198;-69
2022/03/28 07:55:21;;;;;;;38.40;25.30;;;14.10;57.60;;;;;;5064897;28;20226;-69
2022/03/28 07:57:48;;;;;;;45.57;27.27;;;14.20;57.70;;;;;;5063305;28;20206;-69
2022/03/28 08:00:16;;;;;;;43.57;26.80;;;14.40;57.40;;;;;;5067928;28;20208;-69
2022/03/28 08:02:50;;;;;;;42.07;28.43;;;14.60;57.10;;;;;;5072770;28;20595;-69
2022/03/28 08:05:17;;;;;;;42.40;27.43;;;14.80;57.00;;;;;;5061487;28;20292;-69
2022/03/28 08:07:45;;;;;;;39.23;26.73;;;15.00;56.60;;;;;;5068776;28;20540;-69
2022/03/28 08:10:13;;;;;;;43.70;27.67;;;15.20;56.50;;;;;;5044074;28;20635;-69
2022/03/28 08:12:43;;;;;;;47.57;27.90;;;15.40;56.20;;;;;;5073044;28;20250;-69
2022/03/28 08:15:13;;;;;;;41.87;27.67;;;15.50;55.50;;;;;;5057246;28;20287;-69
2022/03/28 08:17:41;;;;;;;45.67;27.70;;;15.70;55.00;;;;;;5068686;28;20545;-69
2022/03/28 08:20:10;;;;;;;42.20;27.43;;;15.90;54.80;;;;;;5059807;28;20214;-69
2022/03/28 08:22:39;;;;;;;43.57;28.00;;;16.00;54.70;;;;;;5076631;28;20217;-69
2022/03/28 08:25:07;;;;;;;44.23;26.83;;;16.20;54.10;;;;;;5061795;28;20220;-69
2022/03/28 08:27:36;;;;;;;37.93;28.03;;;16.40;53.50;;;;;;5066578;28;20251;-69
2022/03/28 08:30:04;;;;;;;46.43;28.30;;;16.50;53.00;;;;;;5060785;28;20228;-70
2022/03/28 08:32:33;;;;;;;45.13;29.40;;;16.60;52.50;;;;;;5067163;28;20280;-70
2022/03/28 08:35:00;;;;;;;39.30;28.00;;;16.70;51.90;;;;;;5060496;28;20238;-69
2022/03/28 08:37:28;;;;;;;39.13;27.83;;;16.80;52.10;;;;;;5068968;28;20209;-69
2022/03/28 08:39:55;;;;;;;41.00;31.20;;;16.90;51.60;;;;;;5065962;28;20301;-69
2022/03/28 08:42:23;;;;;;;47.03;30.00;;;17.00;51.90;;;;;;5071816;28;20230;-69
2022/03/28 08:44:52;;;;;;;45.37;31.67;;;17.20;51.90;;;;;;5074284;28;20216;-69
2022/03/28 08:47:23;;;;;;;53.23;30.90;;;17.20;51.10;;;;;;5068748;28;20201;-69
2022/03/28 08:49:52;;;;;;;52.43;31.73;;;17.40;51.40;;;;;;5061944;28;20705;-69
2022/03/28 08:52:20;;;;;;;43.27;31.73;;;17.50;51.40;;;;;;5070524;28;20639;-69
2022/03/28 08:54:48;;;;;;;46.23;32.33;;;17.70;50.60;;;;;;5061968;28;20220;-69
2022/03/28 08:57:16;;;;;;;49.30;32.00;;;17.80;50.30;;;;;;5063947;28;20199;-69
2022/03/28 08:59:43;;;;;;;47.40;31.83;;;17.90;49.20;;;;;;5069548;28;20302;-69
2022/03/28 09:02:32;;;;;;;43.57;31.40;;;18.00;49.50;;;;;;5063234;28;20202;-70
2022/03/28 09:05:00;;;;;;;44.60;30.23;;;18.10;47.70;;;;;;5067615;28;20270;-70
2022/03/28 09:07:28;;;;;;;46.30;30.27;;;18.10;46.80;;;;;;5089219;28;20666;-70
2022/03/28 09:09:59;;;;;;;47.53;30.37;;;18.00;46.90;;;;;;5066143;28;20231;-70
2022/03/28 09:12:26;;;;;;;47.67;32.87;;;18.00;48.30;;;;;;5067334;28;20213;-70
2022/03/28 09:14:57;;;;;;;47.13;31.43;;;18.00;47.90;;;;;;5055205;28;20642;-70
2022/03/28 09:17:25;;;;;;;51.30;33.43;;;18.10;47.20;;;;;;5058772;28;20213;-70
2022/03/28 09:19:59;;;;;;;48.40;32.27;;;18.10;47.60;;;;;;5065308;28;20195;-69
2022/03/28 09:22:33;;;;;;;47.77;33.43;;;18.20;47.50;;;;;;5053023;28;20556;-69
2022/03/28 09:25:06;;;;;;;60.57;32.87;;;18.30;46.40;;;;;;5062784;28;20233;-69
2022/03/28 09:27:36;;;;;;;55.63;33.33;;;18.30;46.40;;;;;;5064151;28;20210;-69
2022/03/28 09:30:03;;;;;;;50.23;32.37;;;18.20;46.40;;;;;;5069801;28;20204;-69
2022/03/28 09:32:33;;;;;;;54.73;34.90;;;18.30;46.10;;;;;;5064794;28;20200;-69
2022/03/28 09:35:04;;;;;;;56.23;33.67;;;18.40;46.30;;;;;;5061111;28;20318;-69
2022/03/28 09:37:58;;;;;;;55.17;35.37;;;18.60;46.10;;;;;;5069708;28;20223;-69
2022/03/28 09:40:36;;;;;;;50.57;34.70;;;18.70;44.30;;;;;;5057148;28;20212;-69
2022/03/28 09:43:16;;;;;;;50.13;33.53;;;18.70;44.70;;;;;;5063055;28;20203;-69
2022/03/28 09:45:52;;;;;;;47.90;33.97;;;18.80;46.00;;;;;;5065946;28;20203;-69
2022/03/28 09:48:22;;;;;;;47.63;33.83;;;19.00;45.10;;;;;;5071269;28;20647;-69
2022/03/28 09:50:57;;;;;;;60.00;35.93;;;19.10;45.30;;;;;;5054905;28;20206;-69
2022/03/28 09:53:35;;;;;;;50.17;34.87;;;19.30;45.90;;;;;;5067480;28;20206;-69
2022/03/28 09:56:06;;;;;;;62.90;35.47;;;19.50;44.70;;;;;;5053161;28;20648;-69
2022/03/28 09:58:42;;;;;;;54.20;35.60;;;19.70;45.00;;;;;;5055641;28;20659;-69
2022/03/28 10:01:12;;;;;;;53.63;35.80;;;19.80;45.30;;;;;;5067745;28;20204;-69
2022/03/28 10:03:40;;;;;;;56.97;35.07;;;19.90;45.50;;;;;;5057677;28;20206;-69
2022/03/28 10:06:08;;;;;;;59.43;37.63;;;20.10;45.70;;;;;;5064682;28;20238;-69
2022/03/28 10:08:37;;;;;;;60.50;36.40;;;20.30;45.20;;;;;;5059819;28;20555;-69
2022/03/28 10:11:05;;;;;;;54.20;37.63;;;20.60;45.30;;;;;;5063607;28;20208;-69
2022/03/28 10:13:32;;;;;;;52.80;35.93;;;20.80;44.10;;;;;;5069396;28;20214;-69
2022/03/28 10:16:01;;;;;;;49.97;36.23;;;20.90;43.80;;;;;;5071364;28;21035;-69
2022/03/28 10:18:30;;;;;;;50.60;35.10;;;21.10;43.80;;;;;;5069619;28;20685;-69
2022/03/28 10:21:15;;;;;;;57.10;36.67;;;21.20;43.30;;;;;;5065108;28;20272;-70
2022/03/28 10:23:48;;;;;;;53.03;34.70;;;21.20;42.20;;;;;;5064376;28;20201;-69
2022/03/28 10:26:18;;;;;;;53.63;34.73;;;21.30;42.60;;;;;;5077441;28;20207;-69
2022/03/28 10:28:59;;;;;;;52.90;34.50;;;21.40;42.70;;;;;;5056251;28;20292;-69
2022/03/28 10:31:26;;;;;;;50.77;33.83;;;21.50;42.30;;;;;;5063922;28;20582;-69
2022/03/28 10:34:14;;;;;;;52.07;34.77;;;21.60;42.20;;;;;;5055863;28;20221;-69
2022/03/28 10:36:41;;;;;;;52.30;36.10;;;21.80;41.90;;;;;;5070687;28;20285;-70
2022/03/28 10:39:34;;;;;;;52.47;34.33;;;21.80;41.20;;;;;;5061621;28;20949;-70
2022/03/28 10:42:16;;;;;;;50.30;32.83;;;21.90;41.30;;;;;;5066610;28;20202;-70
2022/03/28 10:45:03;;;;;;;49.07;33.57;;;22.00;41.30;;;;;;5056292;28;20202;-70
2022/03/28 10:47:44;;;;;;;49.83;34.07;;;22.20;41.00;;;;;;5065116;28;20202;-70
2022/03/28 10:50:16;;;;;;;48.90;34.37;;;22.30;39.90;;;;;;5061590;28;20216;-70
2022/03/28 10:53:16;;;;;;;48.60;34.00;;;22.40;39.70;;;;;;5053884;28;20203;-70
2022/03/28 10:55:45;;;;;;;39.30;27.57;;;22.40;39.90;;;;;;5042132;28;20608;-70
2022/03/28 10:58:18;;;;;;;42.03;26.87;;;22.50;37.20;;;;;;5062850;28;20274;-70
2022/03/28 11:01:08;;;;;;;48.93;29.70;;;22.40;36.40;;;;;;5064875;28;20224;-70
2022/03/28 11:03:36;;;;;;;41.67;29.17;;;22.40;36.10;;;;;;5056199;28;20218;-70
2022/03/28 11:06:07;;;;;;;39.77;28.87;;;22.40;36.70;;;;;;5066371;28;20305;-70
2022/03/28 11:08:47;;;;;;;40.60;27.73;;;22.40;37.20;;;;;;5062731;28;20210;-70
2022/03/28 11:11:22;;;;;;;40.40;25.00;;;22.40;36.20;;;;;;5069098;28;20288;-70
2022/03/28 11:14:09;;;;;;;35.63;25.13;;;22.40;35.90;;;;;;5074161;28;20198;-70
2022/03/28 11:16:52;;;;;;;32.47;23.20;;;22.50;34.70;;;;;;5060608;28;20231;-70
2022/03/28 11:19:33;;;;;;;44.30;27.37;;;22.60;34.70;;;;;;5071955;28;20279;-70
2022/03/28 11:22:03;;;;;;;36.97;26.87;;;22.70;34.60;;;;;;5060074;28;20234;-70
2022/03/28 11:24:56;;;;;;;41.80;28.77;;;22.70;34.50;;;;;;5060939;28;20208;-70
2022/03/28 11:27:29;;;;;;;35.93;24.23;;;22.80;35.20;;;;;;5067976;28;20277;-70
2022/03/28 11:30:02;;;;;;;34.83;23.87;;;22.90;34.10;;;;;;5073495;28;20229;-70
2022/03/28 11:32:32;;;;;;;36.40;24.40;;;22.90;33.70;;;;;;5073925;28;20236;-70
2022/03/28 11:34:59;;;;;;;35.80;24.47;;;23.10;34.30;;;;;;5067203;28;20265;-70
2022/03/28 11:37:29;;;;;;;34.30;24.60;;;23.20;33.90;;;;;;5059913;28;20643;-70
2022/03/28 11:40:01;;;;;;;33.57;23.90;;;23.40;34.60;;;;;;5071703;28;20206;-70
2022/03/28 11:42:32;;;;;;;38.40;24.17;;;23.50;34.20;;;;;;5063070;28;20197;-70
2022/03/28 11:45:05;;;;;;;33.57;23.83;;;23.60;34.90;;;;;;5070694;28;20761;-70
2022/03/28 11:47:35;;;;;;;35.87;24.67;;;23.70;34.40;;;;;;5076264;28;20284;-71
2022/03/28 11:50:05;;;;;;;36.83;25.20;;;23.80;34.40;;;;;;5065770;28;20210;-71
2022/03/28 11:52:33;;;;;;;32.90;23.53;;;23.90;34.00;;;;;;5068685;28;20193;-71
2022/03/28 11:55:01;;;;;;;30.70;22.73;;;24.00;33.80;;;;;;5075416;28;20316;-71
2022/03/28 12:00:25;;;;;;;35.13;23.57;;;24.10;33.20;;;;;;5067599;28;20695;-71
2022/03/28 12:02:54;;;;;;;33.63;24.50;;;24.20;33.10;;;;;;5061878;28;20603;-71
2022/03/28 12:05:35;;;;;;;32.13;24.80;;;24.20;32.90;;;;;;5061664;28;20271;-71
2022/03/28 12:08:09;;;;;;;36.57;24.40;;;24.20;31.70;;;;;;5067368;28;20305;-71
2022/03/28 12:10:38;;;;;;;37.57;24.73;;;24.10;31.50;;;;;;5055604;28;20244;-71
2022/03/28 12:13:07;;;;;;;31.70;23.10;;;24.00;31.80;;;;;;5072466;28;20726;-71
2022/03/28 12:15:46;;;;;;;35.07;22.37;;;24.00;32.90;;;;;;5065152;28;20241;-71
2022/03/28 12:18:15;;;;;;;35.87;23.63;;;24.00;33.50;;;;;;5078347;28;20639;-71
2022/03/28 12:20:45;;;;;;;34.50;24.13;;;24.10;33.80;;;;;;5058557;28;20255;-71
2022/03/28 12:23:14;;;;;;;34.80;23.63;;;24.20;33.40;;;;;;5066983;28;20731;-71
2022/03/28 12:25:43;;;;;;;61.50;26.57;;;24.20;33.70;;;;;;5073134;28;20296;-71
2022/03/28 12:28:18;;;;;;;34.03;23.90;;;24.20;33.30;;;;;;5073968;28;20288;-71
2022/03/28 12:30:50;;;;;;;33.90;23.60;;;24.30;32.40;;;;;;5064980;28;20626;-71
2022/03/28 12:33:26;;;;;;;31.33;23.20;;;24.20;32.50;;;;;;5059300;28;20210;-72
2022/03/28 12:35:58;;;;;;;35.40;23.20;;;24.30;32.70;;;;;;5074203;28;20221;-71
2022/03/28 12:38:29;;;;;;;34.10;22.77;;;24.30;32.10;;;;;;5060716;28;20199;-71
2022/03/28 12:41:00;;;;;;;31.77;23.00;;;24.30;32.20;;;;;;5061536;28;20647;-71
2022/03/28 12:43:29;;;;;;;36.60;24.37;;;24.20;31.60;;;;;;5060558;28;20206;-71
2022/03/28 12:46:03;;;;;;;30.60;21.90;;;24.10;31.20;;;;;;5064325;28;20222;-71